Polar Ranger — WDC8652 — position and weather

sailwx.info

Track history (hours):
 
Tides and Currents Weather Stations Pressure Air Temp Water Temp Dewpoint Dewpoint Depression Visibility Wind Speed Wind Dir Waves Ship Positions

Polar Ranger

Owner: Dunlap Towing Co., LaConner, WA. More information available from US FCC via Universal Licensing System and Coast Guard Vessel Documentation Center.

Last reported at 2016-Jan-31 12:31 UTC. Time now 2016-Feb-08 10:07 UTC.
Position N 48°14' W 124°04'.

Type: Tow > 200 m length. MMSI: 367090860.

Date/timePositionNaut miles runAvg speedWind from/ knotsBaromVisibWave heightAir tempDewpointWater temp
2016-Jan-31 12:31N 48°14' W 124°04'8 8.0
2016-Jan-31 11:33N 48°12' W 123°54'8 8.1
2016-Jan-31 10:33N 48°12' W 123°41'8 8.2
2016-Jan-31 09:33N 48°12' W 123°29'9 8.8
2016-Jan-31 08:33N 48°12' W 123°16'8 7.6
2016-Jan-31 07:33N 48°13' W 123°05'8 8.4
2016-Jan-31 06:33N 48°12' W 122°52'11 8.6
2016-Jan-31 05:16N 48°06' W 122°39'6 8.9
2016-Jan-31 04:34N 47°60' W 122°35'8 8.5
2016-Jan-31 03:33N 47°53' W 122°28'9 9.5
2016-Jan-31 02:33N 47°43' W 122°26'8 7.9
2016-Jan-31 01:34N 47°36' W 122°23'0 0.4
2016-Jan-31 00:34N 47°36' W 122°22'1 0.8
2016-Jan-30 23:33N 47°35' W 122°21'0 0.1
2016-Jan-30 22:34N 47°35' W 122°21'0 0.1
2016-Jan-30 21:33N 47°35' W 122°21'0 0.0
2016-Jan-30 20:33N 47°35' W 122°21'0 0.0
2016-Jan-30 19:33N 47°35' W 122°21'0 0.0
2016-Jan-30 18:34N 47°35' W 122°21'9 9.2
2016-Jan-30 17:34N 47°44' W 122°26'1312.9
2016-Jan-30 16:33N 47°56' W 122°19'4 3.6
2016-Jan-30 15:33N 47°58' W 122°15'1 1.4
2016-Jan-30 14:33N 47°59' W 122°13'0 0.0
2016-Jan-30 13:33N 47°59' W 122°13'0 0.0
2016-Jan-30 12:33N 47°59' W 122°13'0 0.0
2016-Jan-30 11:33N 47°59' W 122°13'0 0.0
2016-Jan-30 10:33N 47°59' W 122°13'0 0.0
2016-Jan-30 09:33N 47°59' W 122°13'0 0.0
2016-Jan-30 08:33N 47°59' W 122°13'0 0.0
2016-Jan-30 07:33N 47°59' W 122°13'0 0.0
2016-Jan-30 06:33N 47°59' W 122°13'0 0.0
2016-Jan-30 05:33N 47°59' W 122°13'0 0.0
2016-Jan-30 04:33N 47°59' W 122°13'0 0.0
2016-Jan-30 03:33N 47°59' W 122°13'0 0.0
2016-Jan-30 02:33N 47°59' W 122°13'0 0.0
2016-Jan-30 01:33N 47°59' W 122°13'0 0.0
2016-Jan-30 00:33N 47°59' W 122°13'0 0.0
2016-Jan-29 23:33N 47°59' W 122°13'0 0.0
2016-Jan-29 22:33N 47°59' W 122°13'  
2016-Jan-26 18:17N 47°59' W 122°13'0 0.0
2016-Jan-26 17:33N 47°59' W 122°13'0 0.0
2016-Jan-26 16:27N 47°59' W 122°13'  
Track history (hours):
 
Tides and Currents Weather Stations Pressure Air Temp Water Temp Dewpoint Dewpoint Depression Visibility Wind Speed Wind Dir Waves Ship Positions

Polar Ranger

Owner: Dunlap Towing Co., LaConner, WA. More information available from US FCC via Universal Licensing System and Coast Guard Vessel Documentation Center.

Last reported at 2016-Jan-31 12:31 UTC. Time now 2016-Feb-08 10:07 UTC.
Position N 48°14' W 124°04'.

Type: Tow > 200 m length. MMSI: 367090860.

Date/timePositionNaut miles runAvg speedWind from/ knotsBaromVisibWave heightAir tempDewpointWater temp
2016-Jan-31 12:31N 48°14' W 124°04'8 8.0
2016-Jan-31 11:33N 48°12' W 123°54'8 8.1
2016-Jan-31 10:33N 48°12' W 123°41'8 8.2
2016-Jan-31 09:33N 48°12' W 123°29'9 8.8
2016-Jan-31 08:33N 48°12' W 123°16'8 7.6
2016-Jan-31 07:33N 48°13' W 123°05'8 8.4
2016-Jan-31 06:33N 48°12' W 122°52'11 8.6
2016-Jan-31 05:16N 48°06' W 122°39'6 8.9
2016-Jan-31 04:34N 47°60' W 122°35'8 8.5
2016-Jan-31 03:33N 47°53' W 122°28'9 9.5
2016-Jan-31 02:33N 47°43' W 122°26'8 7.9
2016-Jan-31 01:34N 47°36' W 122°23'0 0.4
2016-Jan-31 00:34N 47°36' W 122°22'1 0.8
2016-Jan-30 23:33N 47°35' W 122°21'0 0.1
2016-Jan-30 22:34N 47°35' W 122°21'0 0.1
2016-Jan-30 21:33N 47°35' W 122°21'0 0.0
2016-Jan-30 20:33N 47°35' W 122°21'0 0.0
2016-Jan-30 19:33N 47°35' W 122°21'0 0.0
2016-Jan-30 18:34N 47°35' W 122°21'9 9.2
2016-Jan-30 17:34N 47°44' W 122°26'1312.9
2016-Jan-30 16:33N 47°56' W 122°19'4 3.6
2016-Jan-30 15:33N 47°58' W 122°15'1 1.4
2016-Jan-30 14:33N 47°59' W 122°13'0 0.0
2016-Jan-30 13:33N 47°59' W 122°13'0 0.0
2016-Jan-30 12:33N 47°59' W 122°13'0 0.0
2016-Jan-30 11:33N 47°59' W 122°13'0 0.0
2016-Jan-30 10:33N 47°59' W 122°13'0 0.0
2016-Jan-30 09:33N 47°59' W 122°13'0 0.0
2016-Jan-30 08:33N 47°59' W 122°13'0 0.0
2016-Jan-30 07:33N 47°59' W 122°13'0 0.0
2016-Jan-30 06:33N 47°59' W 122°13'0 0.0
2016-Jan-30 05:33N 47°59' W 122°13'0 0.0
2016-Jan-30 04:33N 47°59' W 122°13'0 0.0
2016-Jan-30 03:33N 47°59' W 122°13'0 0.0
2016-Jan-30 02:33N 47°59' W 122°13'0 0.0
2016-Jan-30 01:33N 47°59' W 122°13'0 0.0
2016-Jan-30 00:33N 47°59' W 122°13'0 0.0
2016-Jan-29 23:33N 47°59' W 122°13'0 0.0
2016-Jan-29 22:33N 47°59' W 122°13'  
2016-Jan-26 18:17N 47°59' W 122°13'0 0.0
2016-Jan-26 17:33N 47°59' W 122°13'0 0.0
2016-Jan-26 16:27N 47°59' W 122°13'  

Dump ship's entire track history